Time;durP1;ratioP1;P1;durP2;ratioP2;P2;SDS_P1;SDS_P2;PMS_P1;PMS_P2;Temp;Humidity;BMP_temperature;BMP_pressure;BME280_temperature;BME280_humidity;BME280_pressure;Samples;Min_cycle;Max_cycle;Signal;HPM_P1;HPM_P2
2022/01/02 00:00:10;;;;;;;2.50;1.30;;;23.70;41.20;;;;;;5017441;28;20082;-46
2022/01/02 00:02:37;;;;;;;1.75;0.80;;;23.70;41.30;;;;;;5026587;28;20091;-47
2022/01/02 00:05:06;;;;;;;2.13;1.00;;;23.70;41.20;;;;;;5024087;28;20034;-48
2022/01/02 00:07:35;;;;;;;2.00;1.02;;;23.70;41.30;;;;;;5007492;28;20390;-48
2022/01/02 00:10:04;;;;;;;2.58;1.00;;;23.70;41.20;;;;;;5007246;28;20046;-46
2022/01/02 00:12:34;;;;;;;2.10;0.98;;;23.70;41.20;;;;;;5006994;28;20263;-48
2022/01/02 00:15:05;;;;;;;2.03;0.95;;;23.70;41.10;;;;;;5007294;28;20049;-46
2022/01/02 00:17:32;;;;;;;1.92;1.00;;;23.70;41.90;;;;;;5007518;28;20056;-49
2022/01/02 00:20:03;;;;;;;1.58;0.82;;;23.70;41.10;;;;;;5006762;28;20026;-45
2022/01/02 00:22:35;;;;;;;1.65;0.82;;;23.70;41.10;;;;;;5034437;28;20607;-48
2022/01/02 00:25:05;;;;;;;;;;;23.60;41.00;;;;;;5025717;28;20037;-47
2022/01/02 00:27:34;;;;;;;1.58;0.80;;;23.60;40.90;;;;;;5018689;28;19909;-46
2022/01/02 00:30:03;;;;;;;2.05;0.95;;;23.70;41.10;;;;;;5017345;28;20113;-48
2022/01/02 00:32:31;;;;;;;1.60;0.70;;;23.60;41.00;;;;;;5024385;28;20482;-47
2022/01/02 00:34:58;;;;;;;2.17;1.02;;;23.60;41.00;;;;;;5024545;28;20040;-47
2022/01/02 00:37:25;;;;;;;1.23;0.70;;;23.60;41.00;;;;;;5007068;28;20029;-46
2022/01/02 00:39:51;;;;;;;1.92;0.82;;;23.60;41.00;;;;;;5006448;28;20034;-48
2022/01/02 00:42:31;;;;;;;2.67;0.90;;;23.60;41.00;;;;;;5006198;28;20610;-47
2022/01/02 00:45:15;;;;;;;1.95;0.95;;;23.60;40.90;;;;;;5006490;28;20026;-47
2022/01/02 00:47:59;;;;;;;2.05;1.00;;;23.60;41.00;;;;;;5006146;28;20074;-47
2022/01/02 00:50:41;;;;;;;2.15;1.00;;;23.60;40.90;;;;;;5014268;28;20109;-48
2022/01/02 00:53:09;;;;;;;2.57;1.07;;;23.60;41.00;;;;;;5005297;28;20034;-48
2022/01/02 00:55:36;;;;;;;2.25;1.00;;;23.60;40.90;;;;;;5006236;28;20466;-46
2022/01/02 00:58:10;;;;;;;1.83;1.00;;;23.50;41.00;;;;;;5006035;28;20437;-47
2022/01/02 01:00:38;;;;;;;2.20;0.80;;;23.50;40.90;;;;;;5015004;28;20026;-47
2022/01/02 01:03:08;;;;;;;2.03;1.00;;;23.50;40.90;;;;;;5026309;28;20038;-47
2022/01/02 01:05:36;;;;;;;1.38;0.80;;;23.50;41.00;;;;;;5020896;28;20116;-48
2022/01/02 01:08:11;;;;;;;2.20;1.00;;;23.50;40.90;;;;;;5005425;28;20041;-46
2022/01/02 01:10:39;;;;;;;3.17;1.00;;;23.50;41.00;;;;;;5007116;28;20092;-47
2022/01/02 01:13:08;;;;;;;1.88;1.00;;;23.50;40.90;;;;;;5006376;28;20113;-46
2022/01/02 01:15:35;;;;;;;1.65;0.80;;;23.50;40.90;;;;;;5006963;28;20034;-48
2022/01/02 01:18:02;;;;;;;1.90;1.00;;;23.50;40.90;;;;;;5006492;28;20541;-47
2022/01/02 01:20:30;;;;;;;1.77;0.85;;;23.50;40.90;;;;;;5006748;28;20032;-47
2022/01/02 01:22:56;;;;;;;1.92;0.90;;;23.50;40.90;;;;;;5006421;28;20057;-47
2022/01/02 01:25:23;;;;;;;1.92;0.82;;;23.50;41.00;;;;;;5005695;28;20038;-47
2022/01/02 01:27:50;;;;;;;1.60;0.85;;;23.50;40.90;;;;;;5006333;28;20109;-48
2022/01/02 01:30:19;;;;;;;1.45;0.80;;;23.50;40.90;;;;;;5006357;28;20368;-46
2022/01/02 01:32:45;;;;;;;1.67;0.90;;;23.50;40.90;;;;;;5005695;28;20052;-48
2022/01/02 01:35:12;;;;;;;1.52;0.70;;;23.50;40.90;;;;;;5006039;28;20513;-47
2022/01/02 01:37:39;;;;;;;2.15;1.00;;;23.50;40.90;;;;;;5006225;28;20036;-46
2022/01/02 01:40:07;;;;;;;1.42;0.80;;;23.50;40.90;;;;;;5006183;28;20034;-46
2022/01/02 01:42:42;;;;;;;2.03;0.93;;;23.50;40.90;;;;;;5005616;28;20042;-49
2022/01/02 01:47:57;;;;;;;1.83;0.90;;;23.50;40.90;;;;;;5006239;28;20076;-47
2022/01/02 01:50:31;;;;;;;1.48;0.70;;;23.50;40.90;;;;;;5015715;28;20578;-46
2022/01/02 01:52:57;;;;;;;2.10;0.77;;;23.50;40.90;;;;;;5005824;28;20046;-46
2022/01/02 01:55:23;;;;;;;1.88;0.82;;;23.40;40.80;;;;;;5006216;28;20099;-47
2022/01/02 01:57:51;;;;;;;1.40;0.70;;;23.40;40.80;;;;;;5006087;28;20032;-47
2022/01/02 02:00:19;;;;;;;1.73;0.82;;;23.40;40.80;;;;;;5006456;28;20022;-47
2022/01/02 02:02:45;;;;;;;1.77;0.70;;;23.40;40.80;;;;;;5025363;28;20037;-48
2022/01/02 02:05:12;;;;;;;1.27;0.80;;;23.40;40.80;;;;;;5022399;28;20039;-48
2022/01/02 02:07:40;;;;;;;1.42;0.82;;;23.40;40.80;;;;;;5006191;28;20038;-47
2022/01/02 02:10:14;;;;;;;1.92;0.80;;;23.40;40.80;;;;;;5005901;28;20033;-46
2022/01/02 02:12:43;;;;;;;1.63;0.77;;;23.40;40.80;;;;;;5004974;28;20034;-47
2022/01/02 02:15:10;;;;;;;1.52;0.80;;;23.40;40.80;;;;;;5005521;28;20065;-47
2022/01/02 02:17:36;;;;;;;1.90;0.80;;;23.40;40.80;;;;;;5006798;28;20033;-46
2022/01/02 02:20:13;;;;;;;1.50;0.80;;;23.40;40.70;;;;;;5015325;28;20060;-47
2022/01/02 02:22:41;;;;;;;1.80;1.00;;;23.40;40.70;;;;;;5021157;28;20481;-48
2022/01/02 02:25:07;;;;;;;1.48;0.70;;;23.40;40.70;;;;;;5025283;28;20482;-48
2022/01/02 02:27:33;;;;;;;2.50;0.93;;;23.40;40.70;;;;;;5012255;28;20037;-46
2022/01/02 02:29:59;;;;;;;1.67;0.82;;;23.40;40.70;;;;;;5005464;28;20040;-46
2022/01/02 02:32:25;;;;;;;1.05;0.63;;;23.40;40.70;;;;;;5004899;28;20037;-47
2022/01/02 02:34:51;;;;;;;1.38;0.73;;;23.40;40.70;;;;;;5004167;28;20576;-49
2022/01/02 02:37:17;;;;;;;1.35;0.80;;;23.40;40.70;;;;;;5005216;28;20030;-47
2022/01/02 02:39:42;;;;;;;1.13;0.52;;;23.40;40.70;;;;;;5004907;28;20414;-48
2022/01/02 02:42:21;;;;;;;1.60;0.70;;;23.40;40.70;;;;;;5004877;28;20109;-48
2022/01/02 02:44:56;;;;;;;1.80;0.80;;;23.30;40.70;;;;;;5005110;28;20103;-47
2022/01/02 02:50:06;;;;;;;1.83;0.88;;;23.30;40.70;;;;;;5016379;28;20028;-46
2022/01/02 02:52:43;;;;;;;1.02;0.60;;;23.40;40.60;;;;;;5005293;28;20029;-46
2022/01/02 02:55:09;;;;;;;1.52;0.70;;;23.40;40.70;;;;;;5004716;28;20030;-48
2022/01/02 02:57:38;;;;;;;1.73;0.82;;;23.40;40.70;;;;;;5009415;28;20580;-48
2022/01/02 03:00:05;;;;;;;1.98;0.90;;;23.30;40.70;;;;;;5017662;28;20106;-48
2022/01/02 03:02:31;;;;;;;1.35;0.60;;;23.30;40.70;;;;;;5018594;28;20034;-47
2022/01/02 03:04:56;;;;;;;1.27;0.65;;;23.30;40.70;;;;;;5004965;28;20017;-47
2022/01/02 03:07:22;;;;;;;1.15;0.60;;;23.30;40.70;;;;;;5004922;28;20037;-48
2022/01/02 03:09:50;;;;;;;1.58;0.68;;;23.30;40.60;;;;;;5005019;28;20541;-47
2022/01/02 03:12:16;;;;;;;1.90;0.77;;;23.30;40.60;;;;;;5004459;28;20037;-47
2022/01/02 03:14:42;;;;;;;1.45;0.60;;;23.30;40.60;;;;;;5004464;28;20030;-46
2022/01/02 03:17:08;;;;;;;1.65;0.73;;;23.30;40.60;;;;;;5007435;28;20568;-48
2022/01/02 03:19:34;;;;;;;2.00;0.77;;;23.30;40.60;;;;;;5011138;28;20587;-46
2022/01/02 03:22:01;;;;;;;1.45;0.60;;;23.30;40.60;;;;;;5011052;28;20026;-47
2022/01/02 03:24:26;;;;;;;1.58;0.85;;;23.30;40.60;;;;;;5011155;28;20034;-47
2022/01/02 03:26:52;;;;;;;1.30;0.60;;;23.30;40.50;;;;;;5010764;28;20024;-47
2022/01/02 03:29:18;;;;;;;1.25;0.60;;;23.30;40.60;;;;;;5011264;28;20030;-47
2022/01/02 03:31:44;;;;;;;1.13;0.52;;;23.30;40.50;;;;;;5010487;28;20033;-47
2022/01/02 03:34:09;;;;;;;1.67;0.80;;;23.30;40.50;;;;;;5017333;28;20057;-45
2022/01/02 03:36:35;;;;;;;1.65;0.63;;;23.30;40.60;;;;;;5025913;28;20108;-46
2022/01/02 03:39:01;;;;;;;1.15;0.60;;;23.30;40.60;;;;;;5030192;28;20057;-45
2022/01/02 03:41:27;;;;;;;1.27;0.70;;;23.30;40.60;;;;;;5025370;28;20037;-45
2022/01/02 03:43:53;;;;;;;0.68;0.50;;;23.30;40.60;;;;;;5029452;28;20029;-45
2022/01/02 03:46:18;;;;;;;1.23;0.77;;;23.30;40.60;;;;;;5030469;28;20077;-46
2022/01/02 03:48:44;;;;;;;1.63;0.73;;;23.30;40.60;;;;;;5029875;28;20037;-46
2022/01/02 03:51:10;;;;;;;0.93;0.55;;;23.30;40.60;;;;;;5028698;28;20119;-46
2022/01/02 03:53:36;;;;;;;1.17;0.57;;;23.30;40.50;;;;;;5011302;28;20045;-45
2022/01/02 03:56:01;;;;;;;1.20;0.57;;;23.30;40.60;;;;;;5010950;28;20038;-45
2022/01/02 03:58:27;;;;;;;1.50;0.65;;;23.30;40.60;;;;;;5010299;28;20389;-46
2022/01/02 04:00:53;;;;;;;1.45;0.65;;;23.30;40.50;;;;;;5010061;28;20045;-45
2022/01/02 04:03:19;;;;;;;1.63;0.60;;;23.30;40.50;;;;;;5011580;28;20255;-47
2022/01/02 04:05:44;;;;;;;1.30;0.63;;;23.20;40.50;;;;;;5011083;28;20036;-45
2022/01/02 04:08:11;;;;;;;1.40;0.70;;;23.20;40.40;;;;;;5010415;28;20037;-45
2022/01/02 04:10:37;;;;;;;1.33;0.70;;;23.20;40.40;;;;;;5010306;28;20514;-45
2022/01/02 04:13:03;;;;;;;1.30;0.57;;;23.20;40.40;;;;;;5010539;28;20057;-45
2022/01/02 04:15:29;;;;;;;1.15;0.70;;;23.20;40.40;;;;;;5010853;28;20030;-46
2022/01/02 04:17:55;;;;;;;1.75;0.75;;;23.20;40.40;;;;;;5010956;28;20032;-46
2022/01/02 04:20:21;;;;;;;2.42;0.70;;;23.20;40.40;;;;;;5009443;28;20475;-45
2022/01/02 04:22:46;;;;;;;1.52;0.75;;;23.20;40.40;;;;;;5010437;28;20065;-46
2022/01/02 04:25:13;;;;;;;1.60;0.65;;;23.20;40.40;;;;;;5010378;28;20037;-45
2022/01/02 04:27:39;;;;;;;1.35;0.65;;;23.20;41.20;;;;;;5009492;28;20109;-45
2022/01/02 04:30:08;;;;;;;1.63;0.77;;;23.20;40.40;;;;;;5007421;28;20121;-46
2022/01/02 04:32:34;;;;;;;0.95;0.50;;;23.20;40.40;;;;;;5007317;28;20044;-45
2022/01/02 04:34:59;;;;;;;1.20;0.70;;;23.20;40.40;;;;;;5007695;28;20022;-46
2022/01/02 04:37:25;;;;;;;1.45;0.63;;;23.20;40.40;;;;;;5007591;28;20061;-45
2022/01/02 04:39:51;;;;;;;1.38;0.82;;;23.20;40.40;;;;;;5007532;28;20026;-46
2022/01/02 04:42:16;;;;;;;1.50;0.80;;;23.20;40.40;;;;;;5006473;28;20572;-46
2022/01/02 04:44:42;;;;;;;1.10;0.60;;;23.20;40.40;;;;;;5007351;28;20389;-45
2022/01/02 04:47:08;;;;;;;1.33;0.70;;;23.20;40.40;;;;;;5006481;28;20062;-46
2022/01/02 04:49:34;;;;;;;1.38;0.75;;;23.10;40.40;;;;;;5010187;28;20112;-46
2022/01/02 04:51:59;;;;;;;1.02;0.52;;;23.20;40.30;;;;;;5018468;28;20038;-45
2022/01/02 04:54:25;;;;;;;1.27;0.70;;;23.10;40.40;;;;;;5006883;28;20483;-45
2022/01/02 04:56:51;;;;;;;1.13;0.52;;;23.10;40.40;;;;;;5006886;28;20084;-45
2022/01/02 04:59:18;;;;;;;1.13;0.68;;;23.10;40.40;;;;;;5007249;28;20034;-45
2022/01/02 05:01:44;;;;;;;1.10;0.60;;;23.10;40.40;;;;;;5007073;28;20030;-45
2022/01/02 05:04:11;;;;;;;1.02;0.50;;;23.10;40.40;;;;;;5007644;28;20087;-45
2022/01/02 05:06:37;;;;;;;1.38;0.65;;;23.10;40.40;;;;;;5006996;28;20034;-45
2022/01/02 05:09:03;;;;;;;1.40;0.70;;;23.10;40.40;;;;;;5007181;28;20042;-45
2022/01/02 05:11:29;;;;;;;1.73;0.80;;;23.10;40.40;;;;;;5006879;28;20112;-45
2022/01/02 05:13:55;;;;;;;0.98;0.52;;;23.10;40.40;;;;;;5006427;28;20179;-46
2022/01/02 05:16:20;;;;;;;1.48;0.68;;;23.10;40.40;;;;;;5005198;28;20522;-46
2022/01/02 05:18:46;;;;;;;1.40;0.70;;;23.10;40.40;;;;;;5006791;28;20072;-45
2022/01/02 05:21:13;;;;;;;1.27;0.60;;;23.10;40.40;;;;;;5006379;28;20483;-45
2022/01/02 05:23:38;;;;;;;0.85;0.50;;;23.10;40.40;;;;;;5006691;28;20030;-45
2022/01/02 05:26:05;;;;;;;1.15;0.70;;;23.10;40.40;;;;;;5006729;28;20044;-45
2022/01/02 05:28:30;;;;;;;1.08;0.52;;;23.10;40.40;;;;;;5006507;28;20030;-45
2022/01/02 05:30:56;;;;;;;1.27;0.60;;;23.00;40.30;;;;;;5006845;28;20033;-46
2022/01/02 05:33:21;;;;;;;1.17;0.63;;;23.00;40.30;;;;;;5006449;28;20026;-45
2022/01/02 05:35:47;;;;;;;0.90;0.50;;;23.00;40.30;;;;;;5006424;28;20115;-46
2022/01/02 05:38:15;;;;;;;1.15;0.60;;;23.00;40.30;;;;;;5006664;28;20041;-45
2022/01/02 05:40:41;;;;;;;0.95;0.50;;;23.00;41.00;;;;;;5005883;28;20022;-45
2022/01/02 05:43:07;;;;;;;1.08;0.50;;;23.00;40.30;;;;;;5006260;28;20441;-45
2022/01/02 05:45:33;;;;;;;1.33;0.65;;;23.10;40.40;;;;;;5006173;28;20033;-46
2022/01/02 05:48:01;;;;;;;1.13;0.60;;;23.00;40.30;;;;;;5006724;28;20032;-46
2022/01/02 05:50:26;;;;;;;1.42;0.60;;;23.00;40.20;;;;;;5025013;28;20028;-46
2022/01/02 05:52:52;;;;;;;1.50;0.70;;;23.00;40.20;;;;;;5005507;28;20104;-45
2022/01/02 05:55:18;;;;;;;1.70;0.80;;;23.00;40.30;;;;;;5006432;28;20026;-46
2022/01/02 05:57:43;;;;;;;0.85;0.50;;;23.00;40.30;;;;;;5006105;28;20022;-45
2022/01/02 06:00:10;;;;;;;1.58;0.60;;;23.00;40.30;;;;;;5005744;28;20065;-46
2022/01/02 06:02:36;;;;;;;1.40;0.73;;;23.00;40.30;;;;;;5005171;28;20034;-46
2022/01/02 06:05:03;;;;;;;1.58;0.70;;;23.00;40.30;;;;;;5005297;28;20243;-45
2022/01/02 06:07:31;;;;;;;1.30;0.68;;;22.90;40.30;;;;;;5004512;28;20030;-45
2022/01/02 06:09:57;;;;;;;1.05;0.68;;;23.00;40.30;;;;;;5005565;28;20438;-46
2022/01/02 06:12:23;;;;;;;0.77;0.50;;;23.00;40.30;;;;;;5005231;28;20021;-45
2022/01/02 06:14:49;;;;;;;1.80;0.88;;;23.00;41.10;;;;;;5004310;28;20057;-45
2022/01/02 06:17:15;;;;;;;2.03;0.93;;;22.90;40.40;;;;;;5005242;28;20032;-45
2022/01/02 06:19:41;;;;;;;1.33;0.70;;;23.00;40.50;;;;;;5005636;28;20030;-46
2022/01/02 06:22:07;;;;;;;1.48;0.70;;;23.00;40.50;;;;;;5005657;28;20038;-46
2022/01/02 06:24:33;;;;;;;1.92;0.90;;;23.00;40.70;;;;;;5005381;28;20042;-45
2022/01/02 06:26:58;;;;;;;1.67;0.80;;;23.00;40.70;;;;;;5005406;28;20037;-46
2022/01/02 06:29:24;;;;;;;1.33;0.65;;;23.00;40.80;;;;;;5004881;28;20215;-45
2022/01/02 06:31:50;;;;;;;1.33;0.75;;;23.00;40.80;;;;;;5005049;28;20049;-46
2022/01/02 06:34:15;;;;;;;0.80;0.57;;;23.10;40.90;;;;;;5005128;28;20084;-45
2022/01/02 06:36:41;;;;;;;1.40;0.70;;;23.10;40.90;;;;;;5004559;28;20041;-45
2022/01/02 06:39:07;;;;;;;1.73;0.80;;;23.20;40.90;;;;;;5005498;28;20026;-46
2022/01/02 06:41:33;;;;;;;1.70;0.95;;;23.20;40.80;;;;;;5004660;28;20075;-46
2022/01/02 06:43:58;;;;;;;1.67;0.65;;;23.30;40.90;;;;;;5005427;28;20037;-45
2022/01/02 06:46:24;;;;;;;1.73;0.80;;;23.30;40.80;;;;;;5004697;28;20024;-46
2022/01/02 06:48:50;;;;;;;1.23;0.63;;;23.40;40.70;;;;;;5004522;28;20080;-45
2022/01/02 06:51:15;;;;;;;1.48;0.70;;;23.50;40.70;;;;;;5023626;28;20441;-45
2022/01/02 06:53:42;;;;;;;1.98;0.95;;;23.50;40.60;;;;;;5005158;28;20561;-46
2022/01/02 06:56:07;;;;;;;2.15;1.00;;;23.60;40.50;;;;;;5004749;28;20026;-45
2022/01/02 06:58:38;;;;;;;1.88;0.70;;;23.70;40.40;;;;;;5003230;28;20030;-45
2022/01/02 07:01:05;;;;;;;1.85;0.82;;;23.70;40.30;;;;;;5004873;28;20048;-46
2022/01/02 07:03:31;;;;;;;2.03;1.10;;;23.80;40.20;;;;;;5003622;28;20026;-46
2022/01/02 07:05:56;;;;;;;2.55;0.95;;;23.90;40.10;;;;;;5007038;28;20545;-46
2022/01/02 07:08:22;;;;;;;1.50;0.80;;;23.90;40.00;;;;;;5004840;28;20034;-46
2022/01/02 07:10:49;;;;;;;1.88;0.88;;;24.00;39.90;;;;;;5005078;28;20080;-45
2022/01/02 07:13:14;;;;;;;2.03;0.95;;;24.10;39.90;;;;;;5004300;28;20465;-46
2022/01/02 07:15:40;;;;;;;1.30;0.65;;;24.10;39.80;;;;;;5004167;28;20050;-46
2022/01/02 07:18:06;;;;;;;1.45;0.80;;;24.20;39.70;;;;;;5005139;28;20034;-46
2022/01/02 07:20:31;;;;;;;1.55;0.90;;;24.20;39.60;;;;;;5004604;28;20087;-46
2022/01/02 07:22:57;;;;;;;1.73;0.90;;;24.30;39.60;;;;;;5003746;28;20438;-46
2022/01/02 07:25:23;;;;;;;1.65;0.70;;;24.30;39.50;;;;;;5003079;28;20053;-46
2022/01/02 07:27:48;;;;;;;2.10;0.70;;;24.30;39.40;;;;;;5004247;28;20033;-46
2022/01/02 07:30:14;;;;;;;1.90;0.90;;;24.40;39.30;;;;;;5004637;28;20037;-45
2022/01/02 07:32:40;;;;;;;1.98;1.02;;;24.40;39.20;;;;;;5006602;28;20041;-46
2022/01/02 07:35:07;;;;;;;1.58;0.75;;;24.40;39.10;;;;;;5020508;28;20026;-46
2022/01/02 07:37:34;;;;;;;2.10;0.85;;;24.50;39.80;;;;;;5021809;28;20763;-46
2022/01/02 07:39:59;;;;;;;1.98;0.85;;;24.50;39.20;;;;;;5020677;28;20053;-46
2022/01/02 07:42:25;;;;;;;5.93;1.10;;;24.60;39.00;;;;;;5021835;28;20197;-46
2022/01/02 07:44:51;;;;;;;2.70;0.95;;;24.60;38.90;;;;;;5022591;28;20033;-46
2022/01/02 07:47:17;;;;;;;3.00;1.15;;;24.60;38.80;;;;;;5021512;28;20030;-47
2022/01/02 07:49:43;;;;;;;2.13;1.05;;;24.70;38.80;;;;;;5022640;28;20026;-46
2022/01/02 07:52:08;;;;;;;1.70;0.82;;;24.70;38.80;;;;;;5022309;28;20026;-46
2022/01/02 07:54:34;;;;;;;2.60;1.20;;;24.70;39.30;;;;;;5021920;28;20025;-46
2022/01/02 07:57:00;;;;;;;2.30;1.20;;;24.80;38.60;;;;;;5022519;28;20021;-46
2022/01/02 07:59:26;;;;;;;3.50;1.40;;;24.80;38.50;;;;;;5022604;28;20046;-46
2022/01/02 08:01:52;;;;;;;2.55;1.27;;;24.80;38.40;;;;;;5022949;28;20585;-46
2022/01/02 08:04:19;;;;;;;1.98;1.00;;;24.80;38.40;;;;;;5024434;28;20041;-46
2022/01/02 08:06:45;;;;;;;2.58;1.05;;;24.90;38.40;;;;;;5025622;28;20453;-46
2022/01/02 08:09:11;;;;;;;3.05;1.40;;;24.90;38.40;;;;;;5025530;28;20073;-46
2022/01/02 08:11:36;;;;;;;1.90;0.90;;;24.90;38.20;;;;;;5016857;28;20072;-46
2022/01/02 08:14:02;;;;;;;3.30;1.17;;;24.90;38.20;;;;;;5006285;28;20018;-46
2022/01/02 08:16:28;;;;;;;3.50;1.35;;;25.00;38.10;;;;;;5005187;28;20080;-46
2022/01/02 08:18:54;;;;;;;2.38;1.20;;;25.00;38.80;;;;;;5005343;28;20030;-46
2022/01/02 08:21:20;;;;;;;2.95;1.40;;;25.00;38.10;;;;;;5009869;28;20525;-46
2022/01/02 08:23:45;;;;;;;2.13;1.00;;;25.00;38.10;;;;;;5025183;28;20378;-46
2022/01/02 08:26:11;;;;;;;2.15;1.10;;;25.00;38.00;;;;;;5026088;28;20476;-46
2022/01/02 08:28:37;;;;;;;2.20;1.10;;;25.10;38.00;;;;;;5026341;28;20397;-46
2022/01/02 08:31:02;;;;;;;2.03;0.88;;;25.10;38.00;;;;;;5024425;28;20650;-45
2022/01/02 08:33:29;;;;;;;2.38;1.25;;;25.10;38.00;;;;;;5024453;28;20029;-46
2022/01/02 08:35:55;;;;;;;2.30;1.13;;;25.10;37.90;;;;;;5024309;28;20244;-45
2022/01/02 08:38:20;;;;;;;2.35;1.30;;;25.10;37.90;;;;;;5024306;28;20018;-46
2022/01/02 08:40:46;;;;;;;2.08;1.00;;;25.10;38.00;;;;;;5024572;28;20105;-46
2022/01/02 08:43:12;;;;;;;1.83;1.08;;;25.10;38.00;;;;;;5024824;28;20037;-45
2022/01/02 08:45:38;;;;;;;2.05;0.93;;;25.10;38.20;;;;;;5018923;28;20457;-46
2022/01/02 08:48:04;;;;;;;3.65;0.98;;;25.10;38.30;;;;;;5021715;28;20040;-46
2022/01/02 08:50:30;;;;;;;3.08;1.17;;;25.10;38.40;;;;;;5026032;28;20034;-46
2022/01/02 08:52:56;;;;;;;2.42;1.30;;;25.10;38.50;;;;;;5022889;28;20061;-46
2022/01/02 08:55:22;;;;;;;5.75;2.38;;;25.10;38.70;;;;;;5023494;28;20029;-46
2022/01/02 08:57:47;;;;;;;5.30;2.80;;;25.10;38.70;;;;;;5025243;28;20018;-46
2022/01/02 09:00:14;;;;;;;6.80;3.30;;;25.10;38.60;;;;;;5023296;28;20083;-46
2022/01/02 09:02:40;;;;;;;5.53;3.45;;;25.10;38.90;;;;;;5024217;28;20029;-46
2022/01/02 09:05:08;;;;;;;5.80;3.22;;;25.10;39.00;;;;;;5023906;28;20054;-46
2022/01/02 09:07:35;;;;;;;5.53;3.95;;;25.10;39.10;;;;;;5021102;28;20677;-46
2022/01/02 09:10:01;;;;;;;6.47;4.00;;;25.10;39.10;;;;;;5023419;28;20060;-46
2022/01/02 09:12:26;;;;;;;4.95;3.38;;;25.10;39.40;;;;;;5022240;28;20022;-45
2022/01/02 09:14:52;;;;;;;5.63;3.85;;;25.10;39.40;;;;;;5024491;28;20018;-45
2022/01/02 09:17:18;;;;;;;5.90;4.15;;;25.10;39.90;;;;;;5025049;28;20546;-46
2022/01/02 09:19:44;;;;;;;5.32;3.42;;;25.20;39.30;;;;;;5019553;28;20133;-47
2022/01/02 09:22:10;;;;;;;4.95;3.55;;;25.20;39.20;;;;;;5014584;28;20100;-46
2022/01/02 09:24:36;;;;;;;4.95;3.45;;;25.20;39.00;;;;;;5005941;28;20026;-46
2022/01/02 09:27:02;;;;;;;4.10;2.90;;;25.20;39.00;;;;;;5006173;28;20037;-47
2022/01/02 09:29:28;;;;;;;4.75;3.30;;;25.20;39.00;;;;;;5005374;28;20032;-47
2022/01/02 09:31:53;;;;;;;5.00;2.97;;;25.20;38.80;;;;;;5005899;28;20041;-46
2022/01/02 09:34:19;;;;;;;4.47;2.65;;;25.20;38.80;;;;;;5004691;28;20387;-46
2022/01/02 09:36:45;;;;;;;3.70;2.72;;;25.20;38.90;;;;;;5007249;28;20109;-46
2022/01/02 09:39:11;;;;;;;4.90;2.80;;;25.20;38.90;;;;;;5018117;28;20129;-46
2022/01/02 09:41:38;;;;;;;3.88;2.83;;;25.20;38.90;;;;;;5009586;28;20101;-47
2022/01/02 09:44:05;;;;;;;5.22;2.70;;;25.20;38.80;;;;;;5005862;28;20116;-46
2022/01/02 09:46:32;;;;;;;4.95;2.72;;;25.20;38.80;;;;;;5005635;28;20092;-46
2022/01/02 09:48:57;;;;;;;5.88;2.97;;;25.20;39.40;;;;;;5005328;28;20037;-46
2022/01/02 09:51:25;;;;;;;4.95;3.30;;;25.20;38.80;;;;;;5031543;28;20045;-46
2022/01/02 09:53:52;;;;;;;3.97;2.80;;;25.20;38.80;;;;;;5010824;28;20038;-45
2022/01/02 09:56:18;;;;;;;5.07;2.60;;;25.20;38.70;;;;;;5016160;28;20026;-46
2022/01/02 09:58:44;;;;;;;4.47;2.50;;;25.20;38.70;;;;;;5005319;28;20041;-46
2022/01/02 10:01:23;;;;;;;5.22;2.78;;;25.20;38.70;;;;;;5015183;28;20104;-46
2022/01/02 10:03:55;;;;;;;3.55;2.50;;;25.20;38.70;;;;;;5024714;28;20548;-45
2022/01/02 10:06:36;;;;;;;4.65;2.45;;;25.20;38.60;;;;;;5021594;28;20821;-46
2022/01/02 10:09:03;;;;;;;3.92;2.22;;;25.10;39.30;;;;;;5015790;28;20040;-46
2022/01/02 10:11:29;;;;;;;3.15;1.92;;;25.10;38.70;;;;;;5017343;28;20105;-46
2022/01/02 10:13:56;;;;;;;4.45;2.47;;;25.10;38.60;;;;;;5018613;28;20116;-46
2022/01/02 10:16:34;;;;;;;3.90;2.72;;;25.10;38.60;;;;;;5024861;28;20022;-46
2022/01/02 10:19:21;;;;;;;3.00;2.05;;;25.10;38.60;;;;;;5024057;28;20022;-46
2022/01/02 10:22:03;;;;;;;4.72;2.30;;;25.10;38.60;;;;;;5020554;28;20025;-46
2022/01/02 10:24:31;;;;;;;3.85;2.40;;;25.10;38.60;;;;;;5022660;28;20040;-46
2022/01/02 10:27:12;;;;;;;3.50;2.00;;;25.00;38.60;;;;;;5024268;28;20163;-46
2022/01/02 10:29:42;;;;;;;4.13;2.25;;;25.00;38.60;;;;;;5024228;28;20053;-45
2022/01/02 10:32:26;;;;;;;3.90;2.25;;;25.00;38.60;;;;;;5018133;28;20029;-46
2022/01/02 10:34:53;;;;;;;4.25;2.42;;;25.00;38.70;;;;;;5004743;28;20026;-46
2022/01/02 10:37:26;;;;;;;3.72;2.38;;;25.00;38.60;;;;;;5004259;28;20033;-46
2022/01/02 10:39:52;;;;;;;3.55;2.20;;;25.00;38.70;;;;;;5012691;28;20105;-46
2022/01/02 10:42:19;;;;;;;3.83;2.35;;;25.00;38.70;;;;;;5007930;28;20502;-46
2022/01/02 10:44:46;;;;;;;4.50;2.50;;;25.00;38.70;;;;;;5002576;28;20091;-46
2022/01/02 10:47:16;;;;;;;4.00;2.30;;;24.90;38.70;;;;;;5019570;28;20523;-46
2022/01/02 10:50:07;;;;;;;3.83;2.30;;;24.90;38.80;;;;;;5026353;28;20083;-45
2022/01/02 10:52:47;;;;;;;3.20;2.05;;;24.90;38.80;;;;;;5018799;28;20026;-45
2022/01/02 10:55:16;;;;;;;3.85;2.50;;;24.90;38.90;;;;;;5014764;28;20564;-46
2022/01/02 10:57:42;;;;;;;4.78;2.58;;;24.90;38.90;;;;;;5004143;28;20572;-45
2022/01/02 11:00:10;;;;;;;3.53;2.10;;;24.90;39.00;;;;;;5010260;28;20024;-46
2022/01/02 11:02:37;;;;;;;3.95;2.50;;;24.90;39.00;;;;;;5002306;28;20541;-46
2022/01/02 11:05:08;;;;;;;4.28;2.25;;;24.90;39.00;;;;;;5016173;28;20029;-47
2022/01/02 11:07:44;;;;;;;4.03;2.60;;;24.90;38.90;;;;;;5009983;28;20038;-46
2022/01/02 11:10:11;;;;;;;3.30;2.17;;;24.90;38.70;;;;;;5002272;28;20470;-47
2022/01/02 11:12:38;;;;;;;3.45;2.15;;;24.90;38.80;;;;;;5001798;28;20030;-46
2022/01/02 11:15:19;;;;;;;3.65;2.38;;;24.90;38.60;;;;;;5002728;28;20034;-46
2022/01/02 11:17:45;;;;;;;3.92;2.15;;;24.90;38.50;;;;;;5003415;28;20140;-47
2022/01/02 11:20:33;;;;;;;4.55;2.75;;;24.90;38.40;;;;;;5003613;28;20030;-46
2022/01/02 11:23:21;;;;;;;5.85;2.42;;;24.90;38.60;;;;;;5004552;28;20077;-45
2022/01/02 11:26:03;;;;;;;4.97;2.78;;;24.90;38.80;;;;;;5006105;28;20682;-46
2022/01/02 11:28:34;;;;;;;4.03;2.40;;;24.90;39.00;;;;;;5013565;28;20092;-46
2022/01/02 11:31:02;;;;;;;3.72;2.38;;;24.90;39.10;;;;;;5013173;28;20505;-46
2022/01/02 11:33:36;;;;;;;3.70;2.40;;;24.90;39.20;;;;;;5013891;28;20025;-46
2022/01/02 11:36:25;;;;;;;4.28;2.78;;;24.90;39.40;;;;;;5013208;28;20025;-46
2022/01/02 11:39:04;;;;;;;3.75;2.33;;;24.90;39.60;;;;;;5009582;28;20109;-46
2022/01/02 11:41:39;;;;;;;4.57;3.08;;;24.90;39.80;;;;;;5008125;28;20538;-46
2022/01/02 11:44:12;;;;;;;3.38;2.20;;;24.90;39.90;;;;;;5014604;28;20115;-46
2022/01/02 11:47:07;;;;;;;3.83;2.53;;;24.90;39.90;;;;;;5016635;28;20083;-45
2022/01/02 11:49:43;;;;;;;3.83;2.42;;;24.90;39.90;;;;;;5004833;28;20034;-46
2022/01/02 11:52:11;;;;;;;3.70;2.40;;;24.90;39.90;;;;;;5033654;28;20030;-47
2022/01/02 11:54:46;;;;;;;3.85;2.20;;;24.90;39.90;;;;;;5017656;28;20643;-46
2022/01/02 11:57:15;;;;;;;3.63;2.30;;;24.90;40.00;;;;;;5020901;28;20230;-46
2022/01/02 11:59:44;;;;;;;3.83;2.47;;;24.90;40.00;;;;;;5026830;28;20023;-47
2022/01/02 12:02:13;;;;;;;4.43;2.42;;;24.90;40.00;;;;;;5027608;28;20746;-46
2022/01/02 12:04:58;;;;;;;3.63;2.17;;;24.90;40.00;;;;;;5027094;28;20033;-45
2022/01/02 12:07:35;;;;;;;4.53;2.30;;;24.90;40.20;;;;;;5016924;28;20034;-45
2022/01/02 12:10:16;;;;;;;3.38;2.05;;;24.90;40.20;;;;;;5022442;28;20037;-46
2022/01/02 12:13:00;;;;;;;3.45;2.22;;;24.90;40.30;;;;;;5006280;28;20080;-47
2022/01/02 12:15:35;;;;;;;3.10;1.88;;;24.90;40.50;;;;;;5006850;28;22077;-46
2022/01/02 12:18:27;;;;;;;3.75;2.13;;;24.90;40.60;;;;;;5006225;28;20687;-46
2022/01/02 12:20:53;;;;;;;3.40;2.17;;;24.90;40.50;;;;;;5007537;28;20089;-46
2022/01/02 12:23:34;;;;;;;3.72;2.17;;;24.90;40.60;;;;;;5006732;28;20041;-46
2022/01/02 12:26:18;;;;;;;3.17;1.98;;;24.90;40.70;;;;;;5007138;28;20033;-46
2022/01/02 12:28:56;;;;;;;3.20;1.80;;;24.90;41.40;;;;;;5007076;28;20044;-46
2022/01/02 12:31:26;;;;;;;3.58;2.30;;;24.90;40.90;;;;;;5007271;28;20376;-46
2022/01/02 12:33:51;;;;;;;4.60;2.55;;;24.90;41.10;;;;;;5005829;28;20029;-46
2022/01/02 12:36:19;;;;;;;4.13;2.55;;;24.90;41.60;;;;;;5006737;28;20397;-45
2022/01/02 12:38:56;;;;;;;4.00;2.20;;;24.90;41.60;;;;;;5006189;28;20030;-46
2022/01/02 12:41:27;;;;;;;4.10;2.40;;;24.90;41.50;;;;;;5006502;28;20026;-46
2022/01/02 12:44:07;;;;;;;3.80;2.35;;;24.90;41.40;;;;;;5006092;28;20481;-46
2022/01/02 12:46:34;;;;;;;4.13;2.25;;;24.90;41.30;;;;;;5005601;28;20434;-45
2022/01/02 12:49:01;;;;;;;3.72;2.00;;;25.00;41.10;;;;;;5005312;28;20120;-46
2022/01/02 12:51:31;;;;;;;3.50;2.10;;;25.00;41.40;;;;;;5031421;28;20058;-45
2022/01/02 12:54:08;;;;;;;3.83;2.33;;;25.00;41.20;;;;;;5017352;28;20117;-45
2022/01/02 12:56:35;;;;;;;3.38;1.88;;;25.00;41.20;;;;;;5014931;28;20033;-45
2022/01/02 12:59:23;;;;;;;5.78;2.30;;;24.90;41.10;;;;;;5019901;28;20652;-45